sensor_id;sensor_type;location;lat;lon;timestamp;temperature;humidity
15638;DHT22;26604;53.596;10.042;2022-11-20T00:01:23;19.10;99.90
15638;DHT22;26604;53.596;10.042;2022-11-20T00:03:51;19.30;99.90
15638;DHT22;26604;53.596;10.042;2022-11-20T00:06:20;19.40;99.90
15638;DHT22;26604;53.596;10.042;2022-11-20T00:08:48;19.50;99.90
15638;DHT22;26604;53.596;10.042;2022-11-20T00:11:17;19.60;99.90
15638;DHT22;26604;53.596;10.042;2022-11-20T00:13:45;19.60;99.90
15638;DHT22;26604;53.596;10.042;2022-11-20T00:16:14;19.60;99.90
15638;DHT22;26604;53.596;10.042;2022-11-20T00:18:41;19.60;99.90
15638;DHT22;26604;53.596;10.042;2022-11-20T00:21:11;19.60;99.90
15638;DHT22;26604;53.596;10.042;2022-11-20T00:23:40;19.60;99.90
15638;DHT22;26604;53.596;10.042;2022-11-20T00:26:09;19.60;99.90
15638;DHT22;26604;53.596;10.042;2022-11-20T00:28:36;19.60;99.90
15638;DHT22;26604;53.596;10.042;2022-11-20T00:31:06;19.60;99.90
15638;DHT22;26604;53.596;10.042;2022-11-20T00:33:33;19.50;99.90
15638;DHT22;26604;53.596;10.042;2022-11-20T00:36:00;19.50;99.90
15638;DHT22;26604;53.596;10.042;2022-11-20T00:38:28;19.40;99.90
15638;DHT22;26604;53.596;10.042;2022-11-20T00:40:57;19.40;99.90
15638;DHT22;26604;53.596;10.042;2022-11-20T00:43:25;19.40;99.90
15638;DHT22;26604;53.596;10.042;2022-11-20T00:45:56;19.30;99.90
15638;DHT22;26604;53.596;10.042;2022-11-20T00:48:23;19.30;99.90
15638;DHT22;26604;53.596;10.042;2022-11-20T00:50:50;19.30;99.90
15638;DHT22;26604;53.596;10.042;2022-11-20T00:53:17;19.20;99.90
15638;DHT22;26604;53.596;10.042;2022-11-20T00:55:52;19.20;99.90
15638;DHT22;26604;53.596;10.042;2022-11-20T00:58:21;19.20;99.90
15638;DHT22;26604;53.596;10.042;2022-11-20T01:00:48;19.10;99.90
15638;DHT22;26604;53.596;10.042;2022-11-20T01:03:15;19.10;99.90
15638;DHT22;26604;53.596;10.042;2022-11-20T01:05:42;19.10;99.90
15638;DHT22;26604;53.596;10.042;2022-11-20T01:08:09;19.10;99.90
15638;DHT22;26604;53.596;10.042;2022-11-20T01:10:36;19.00;99.90
15638;DHT22;26604;53.596;10.042;2022-11-20T01:13:03;19.00;99.90
15638;DHT22;26604;53.596;10.042;2022-11-20T01:15:48;19.00;99.90
15638;DHT22;26604;53.596;10.042;2022-11-20T01:18:15;19.00;99.90
15638;DHT22;26604;53.596;10.042;2022-11-20T01:20:42;19.00;99.90
15638;DHT22;26604;53.596;10.042;2022-11-20T01:23:09;19.00;99.90
15638;DHT22;26604;53.596;10.042;2022-11-20T01:25:36;19.00;99.90
15638;DHT22;26604;53.596;10.042;2022-11-20T01:28:02;18.50;99.90
15638;DHT22;26604;53.596;10.042;2022-11-20T01:30:29;18.90;99.90
15638;DHT22;26604;53.596;10.042;2022-11-20T01:32:57;18.90;99.90
15638;DHT22;26604;53.596;10.042;2022-11-20T01:35:24;18.90;99.90
15638;DHT22;26604;53.596;10.042;2022-11-20T01:37:51;18.90;99.90
15638;DHT22;26604;53.596;10.042;2022-11-20T01:40:18;18.90;99.90
15638;DHT22;26604;53.596;10.042;2022-11-20T01:42:47;18.90;99.90
15638;DHT22;26604;53.596;10.042;2022-11-20T01:46:06;18.90;99.90
15638;DHT22;26604;53.596;10.042;2022-11-20T01:48:42;18.90;99.90
15638;DHT22;26604;53.596;10.042;2022-11-20T01:51:15;18.90;99.90
15638;DHT22;26604;53.596;10.042;2022-11-20T01:53:44;18.90;99.90
15638;DHT22;26604;53.596;10.042;2022-11-20T01:56:12;18.90;99.90
15638;DHT22;26604;53.596;10.042;2022-11-20T01:58:44;19.00;99.90
15638;DHT22;26604;53.596;10.042;2022-11-20T02:01:14;19.10;99.90
15638;DHT22;26604;53.596;10.042;2022-11-20T02:03:43;19.30;99.90
15638;DHT22;26604;53.596;10.042;2022-11-20T02:06:15;19.30;99.90
15638;DHT22;26604;53.596;10.042;2022-11-20T02:08:43;19.40;99.90
15638;DHT22;26604;53.596;10.042;2022-11-20T02:11:10;19.50;99.90
15638;DHT22;26604;53.596;10.042;2022-11-20T02:13:38;19.50;99.90
15638;DHT22;26604;53.596;10.042;2022-11-20T02:16:14;19.50;99.90
15638;DHT22;26604;53.596;10.042;2022-11-20T02:18:44;19.50;99.90
15638;DHT22;26604;53.596;10.042;2022-11-20T02:21:18;19.50;99.90
15638;DHT22;26604;53.596;10.042;2022-11-20T02:24:05;19.50;99.90
15638;DHT22;26604;53.596;10.042;2022-11-20T02:26:34;19.40;99.90
15638;DHT22;26604;53.596;10.042;2022-11-20T02:29:03;19.40;99.90
15638;DHT22;26604;53.596;10.042;2022-11-20T02:31:36;19.40;99.90
15638;DHT22;26604;53.596;10.042;2022-11-20T02:34:03;19.30;99.90
15638;DHT22;26604;53.596;10.042;2022-11-20T02:36:32;19.30;99.90
15638;DHT22;26604;53.596;10.042;2022-11-20T02:38:59;19.30;99.90
15638;DHT22;26604;53.596;10.042;2022-11-20T02:41:33;19.20;99.90
15638;DHT22;26604;53.596;10.042;2022-11-20T02:44:00;19.20;99.90
15638;DHT22;26604;53.596;10.042;2022-11-20T02:46:27;19.10;99.90
15638;DHT22;26604;53.596;10.042;2022-11-20T02:48:54;19.10;99.90
15638;DHT22;26604;53.596;10.042;2022-11-20T02:51:21;19.10;99.90
15638;DHT22;26604;53.596;10.042;2022-11-20T02:53:47;19.10;99.90
15638;DHT22;26604;53.596;10.042;2022-11-20T02:56:14;19.00;99.90
15638;DHT22;26604;53.596;10.042;2022-11-20T02:58:43;19.00;99.90
15638;DHT22;26604;53.596;10.042;2022-11-20T03:01:10;19.00;99.90
15638;DHT22;26604;53.596;10.042;2022-11-20T03:03:36;18.90;99.90
15638;DHT22;26604;53.596;10.042;2022-11-20T03:06:03;18.90;99.90
15638;DHT22;26604;53.596;10.042;2022-11-20T03:08:30;18.90;99.90
15638;DHT22;26604;53.596;10.042;2022-11-20T03:11:02;18.90;99.90
15638;DHT22;26604;53.596;10.042;2022-11-20T03:13:29;18.80;99.90
15638;DHT22;26604;53.596;10.042;2022-11-20T03:15:57;18.90;99.90
15638;DHT22;26604;53.596;10.042;2022-11-20T03:18:24;18.90;99.90
15638;DHT22;26604;53.596;10.042;2022-11-20T03:20:57;18.90;99.90
15638;DHT22;26604;53.596;10.042;2022-11-20T03:23:23;18.80;99.90
15638;DHT22;26604;53.596;10.042;2022-11-20T03:25:50;18.80;99.90
15638;DHT22;26604;53.596;10.042;2022-11-20T03:28:17;18.80;99.90
15638;DHT22;26604;53.596;10.042;2022-11-20T03:30:44;18.80;99.90
15638;DHT22;26604;53.596;10.042;2022-11-20T03:33:12;18.80;99.90
15638;DHT22;26604;53.596;10.042;2022-11-20T03:35:39;18.90;99.90
15638;DHT22;26604;53.596;10.042;2022-11-20T03:38:06;19.00;99.90
15638;DHT22;26604;53.596;10.042;2022-11-20T03:40:33;19.10;99.90
15638;DHT22;26604;53.596;10.042;2022-11-20T03:43:01;19.20;99.90
15638;DHT22;26604;53.596;10.042;2022-11-20T03:45:27;19.30;99.90
15638;DHT22;26604;53.596;10.042;2022-11-20T03:47:54;19.40;99.90
15638;DHT22;26604;53.596;10.042;2022-11-20T03:50:22;19.40;99.90
15638;DHT22;26604;53.596;10.042;2022-11-20T03:52:49;19.40;99.90
15638;DHT22;26604;53.596;10.042;2022-11-20T03:55:16;19.40;99.90
15638;DHT22;26604;53.596;10.042;2022-11-20T03:57:43;19.40;99.90
15638;DHT22;26604;53.596;10.042;2022-11-20T04:00:11;19.40;99.90
15638;DHT22;26604;53.596;10.042;2022-11-20T04:02:38;19.40;99.90
15638;DHT22;26604;53.596;10.042;2022-11-20T04:05:05;19.40;99.90
15638;DHT22;26604;53.596;10.042;2022-11-20T04:07:35;19.30;99.90
15638;DHT22;26604;53.596;10.042;2022-11-20T04:10:02;19.30;99.90
15638;DHT22;26604;53.596;10.042;2022-11-20T04:12:32;19.30;99.90
15638;DHT22;26604;53.596;10.042;2022-11-20T04:14:59;19.20;99.90
15638;DHT22;26604;53.596;10.042;2022-11-20T04:17:26;19.20;99.90
15638;DHT22;26604;53.596;10.042;2022-11-20T04:19:52;19.10;99.90
15638;DHT22;26604;53.596;10.042;2022-11-20T04:22:19;19.10;99.90
15638;DHT22;26604;53.596;10.042;2022-11-20T04:24:47;19.10;99.90
15638;DHT22;26604;53.596;10.042;2022-11-20T04:27:14;19.00;99.90
15638;DHT22;26604;53.596;10.042;2022-11-20T04:29:41;19.00;99.90
15638;DHT22;26604;53.596;10.042;2022-11-20T04:32:08;19.00;99.90
15638;DHT22;26604;53.596;10.042;2022-11-20T04:34:35;18.90;99.90
15638;DHT22;26604;53.596;10.042;2022-11-20T04:37:02;18.90;99.90
15638;DHT22;26604;53.596;10.042;2022-11-20T04:39:28;18.90;99.90
15638;DHT22;26604;53.596;10.042;2022-11-20T04:41:57;18.90;99.90
15638;DHT22;26604;53.596;10.042;2022-11-20T04:44:37;18.90;99.90
15638;DHT22;26604;53.596;10.042;2022-11-20T04:47:04;18.80;99.90
15638;DHT22;26604;53.596;10.042;2022-11-20T04:49:31;18.80;99.90
15638;DHT22;26604;53.596;10.042;2022-11-20T04:51:59;18.80;99.90
15638;DHT22;26604;53.596;10.042;2022-11-20T04:54:26;18.80;99.90
15638;DHT22;26604;53.596;10.042;2022-11-20T04:56:53;18.80;99.90
15638;DHT22;26604;53.596;10.042;2022-11-20T04:59:21;18.70;99.90
15638;DHT22;26604;53.596;10.042;2022-11-20T05:01:48;18.70;99.90
15638;DHT22;26604;53.596;10.042;2022-11-20T05:04:15;18.70;99.90
15638;DHT22;26604;53.596;10.042;2022-11-20T05:06:41;18.70;99.90
15638;DHT22;26604;53.596;10.042;2022-11-20T05:09:08;18.70;99.90
15638;DHT22;26604;53.596;10.042;2022-11-20T05:11:35;18.70;99.90
15638;DHT22;26604;53.596;10.042;2022-11-20T05:14:02;18.70;99.90
15638;DHT22;26604;53.596;10.042;2022-11-20T05:16:30;18.80;99.90
15638;DHT22;26604;53.596;10.042;2022-11-20T05:18:57;18.90;99.90
15638;DHT22;26604;53.596;10.042;2022-11-20T05:21:24;19.00;99.90
15638;DHT22;26604;53.596;10.042;2022-11-20T05:23:50;19.10;99.90
15638;DHT22;26604;53.596;10.042;2022-11-20T05:26:19;19.20;99.90
15638;DHT22;26604;53.596;10.042;2022-11-20T05:28:47;19.30;99.90
15638;DHT22;26604;53.596;10.042;2022-11-20T05:31:15;19.30;99.90
15638;DHT22;26604;53.596;10.042;2022-11-20T05:33:45;19.30;99.90
15638;DHT22;26604;53.596;10.042;2022-11-20T05:36:13;19.40;99.90
15638;DHT22;26604;53.596;10.042;2022-11-20T05:38:40;19.40;99.90
15638;DHT22;26604;53.596;10.042;2022-11-20T05:41:09;19.40;99.90
15638;DHT22;26604;53.596;10.042;2022-11-20T05:43:37;19.30;99.90
15638;DHT22;26604;53.596;10.042;2022-11-20T05:46:05;19.30;99.90
15638;DHT22;26604;53.596;10.042;2022-11-20T05:48:33;19.30;99.90
15638;DHT22;26604;53.596;10.042;2022-11-20T05:51:03;19.30;99.90
15638;DHT22;26604;53.596;10.042;2022-11-20T05:53:31;19.20;99.90
15638;DHT22;26604;53.596;10.042;2022-11-20T05:56:00;19.10;99.90
15638;DHT22;26604;53.596;10.042;2022-11-20T05:58:27;19.10;99.90
15638;DHT22;26604;53.596;10.042;2022-11-20T06:00:54;19.10;99.90
15638;DHT22;26604;53.596;10.042;2022-11-20T06:03:21;19.00;99.90
15638;DHT22;26604;53.596;10.042;2022-11-20T06:05:48;19.00;99.90
15638;DHT22;26604;53.596;10.042;2022-11-20T06:08:16;19.00;99.90
15638;DHT22;26604;53.596;10.042;2022-11-20T06:10:43;18.90;99.90
15638;DHT22;26604;53.596;10.042;2022-11-20T06:13:10;18.90;99.90
15638;DHT22;26604;53.596;10.042;2022-11-20T06:15:37;18.90;99.90
15638;DHT22;26604;53.596;10.042;2022-11-20T06:18:04;18.90;99.90
15638;DHT22;26604;53.596;10.042;2022-11-20T06:20:30;18.80;99.90
15638;DHT22;26604;53.596;10.042;2022-11-20T06:22:57;18.80;99.90
15638;DHT22;26604;53.596;10.042;2022-11-20T06:25:25;18.80;99.90
15638;DHT22;26604;53.596;10.042;2022-11-20T06:27:52;18.80;99.90
15638;DHT22;26604;53.596;10.042;2022-11-20T06:30:19;18.80;99.90
15638;DHT22;26604;53.596;10.042;2022-11-20T06:32:46;18.70;99.90
15638;DHT22;26604;53.596;10.042;2022-11-20T06:35:13;18.70;99.90
15638;DHT22;26604;53.596;10.042;2022-11-20T06:37:39;18.70;99.90
15638;DHT22;26604;53.596;10.042;2022-11-20T06:40:08;18.70;99.90
15638;DHT22;26604;53.596;10.042;2022-11-20T06:42:36;18.70;99.90
15638;DHT22;26604;53.596;10.042;2022-11-20T06:45:03;18.70;99.90
15638;DHT22;26604;53.596;10.042;2022-11-20T06:47:30;18.70;99.90
15638;DHT22;26604;53.596;10.042;2022-11-20T06:49:57;18.70;99.90
15638;DHT22;26604;53.596;10.042;2022-11-20T06:52:23;18.70;99.90
15638;DHT22;26604;53.596;10.042;2022-11-20T06:54:50;18.70;99.90
15638;DHT22;26604;53.596;10.042;2022-11-20T06:57:17;18.70;99.90
15638;DHT22;26604;53.596;10.042;2022-11-20T06:59:45;18.70;99.90
15638;DHT22;26604;53.596;10.042;2022-11-20T07:02:12;18.90;99.90
15638;DHT22;26604;53.596;10.042;2022-11-20T07:04:39;19.00;99.90
15638;DHT22;26604;53.596;10.042;2022-11-20T07:07:06;19.10;99.90
15638;DHT22;26604;53.596;10.042;2022-11-20T07:09:33;19.20;99.90
15638;DHT22;26604;53.596;10.042;2022-11-20T07:12:00;19.30;99.90
15638;DHT22;26604;53.596;10.042;2022-11-20T07:14:26;19.30;99.90
15638;DHT22;26604;53.596;10.042;2022-11-20T07:16:55;19.30;99.90
15638;DHT22;26604;53.596;10.042;2022-11-20T07:19:22;19.30;99.90
15638;DHT22;26604;53.596;10.042;2022-11-20T07:21:49;19.30;99.90
15638;DHT22;26604;53.596;10.042;2022-11-20T07:24:16;19.30;99.90
15638;DHT22;26604;53.596;10.042;2022-11-20T07:26:42;19.30;99.90
15638;DHT22;26604;53.596;10.042;2022-11-20T07:29:12;19.30;99.90
15638;DHT22;26604;53.596;10.042;2022-11-20T07:31:39;19.20;99.90
15638;DHT22;26604;53.596;10.042;2022-11-20T07:34:07;19.20;99.90
15638;DHT22;26604;53.596;10.042;2022-11-20T07:36:34;19.10;99.90
15638;DHT22;26604;53.596;10.042;2022-11-20T07:39:00;19.10;99.90
15638;DHT22;26604;53.596;10.042;2022-11-20T07:41:27;19.10;99.90
15638;DHT22;26604;53.596;10.042;2022-11-20T07:43:54;19.00;99.90
15638;DHT22;26604;53.596;10.042;2022-11-20T07:46:21;19.00;99.90
15638;DHT22;26604;53.596;10.042;2022-11-20T07:48:48;18.90;99.90
15638;DHT22;26604;53.596;10.042;2022-11-20T07:51:16;18.90;99.90
15638;DHT22;26604;53.596;10.042;2022-11-20T07:53:43;18.90;99.90
15638;DHT22;26604;53.596;10.042;2022-11-20T07:56:09;18.90;99.90
15638;DHT22;26604;53.596;10.042;2022-11-20T07:58:36;18.80;99.90
15638;DHT22;26604;53.596;10.042;2022-11-20T08:01:04;18.80;99.90
15638;DHT22;26604;53.596;10.042;2022-11-20T08:03:31;18.80;99.90
15638;DHT22;26604;53.596;10.042;2022-11-20T08:05:58;18.80;99.90
15638;DHT22;26604;53.596;10.042;2022-11-20T08:08:27;18.80;99.90
15638;DHT22;26604;53.596;10.042;2022-11-20T08:10:56;18.70;99.90
15638;DHT22;26604;53.596;10.042;2022-11-20T08:13:43;18.70;99.90
15638;DHT22;26604;53.596;10.042;2022-11-20T08:16:28;18.80;99.90
15638;DHT22;26604;53.596;10.042;2022-11-20T08:18:55;19.00;99.90
15638;DHT22;26604;53.596;10.042;2022-11-20T08:21:21;19.10;99.90
15638;DHT22;26604;53.596;10.042;2022-11-20T08:23:50;19.20;99.90
15638;DHT22;26604;53.596;10.042;2022-11-20T08:26:17;19.40;99.90
15638;DHT22;26604;53.596;10.042;2022-11-20T08:28:44;19.50;99.90
15638;DHT22;26604;53.596;10.042;2022-11-20T08:31:11;19.70;99.90
15638;DHT22;26604;53.596;10.042;2022-11-20T08:33:37;19.90;99.90
15638;DHT22;26604;53.596;10.042;2022-11-20T08:36:05;20.00;99.90
15638;DHT22;26604;53.596;10.042;2022-11-20T08:38:32;20.20;99.90
15638;DHT22;26604;53.596;10.042;2022-11-20T08:41:02;20.40;99.90
15638;DHT22;26604;53.596;10.042;2022-11-20T08:43:47;20.60;99.90
15638;DHT22;26604;53.596;10.042;2022-11-20T08:46:14;20.80;99.90
15638;DHT22;26604;53.596;10.042;2022-11-20T08:48:41;20.80;99.90
15638;DHT22;26604;53.596;10.042;2022-11-20T08:51:08;20.90;99.90
15638;DHT22;26604;53.596;10.042;2022-11-20T08:53:35;21.00;99.90
15638;DHT22;26604;53.596;10.042;2022-11-20T08:56:04;21.00;99.90
15638;DHT22;26604;53.596;10.042;2022-11-20T08:58:31;21.00;99.90
15638;DHT22;26604;53.596;10.042;2022-11-20T09:00:58;21.00;99.90
15638;DHT22;26604;53.596;10.042;2022-11-20T09:03:25;20.90;99.90
15638;DHT22;26604;53.596;10.042;2022-11-20T09:05:57;20.90;99.90
15638;DHT22;26604;53.596;10.042;2022-11-20T09:08:25;20.80;99.90
15638;DHT22;26604;53.596;10.042;2022-11-20T09:10:52;20.80;99.90
15638;DHT22;26604;53.596;10.042;2022-11-20T09:13:20;20.70;99.90
15638;DHT22;26604;53.596;10.042;2022-11-20T09:15:48;20.70;99.90
15638;DHT22;26604;53.596;10.042;2022-11-20T09:18:18;20.60;99.90
15638;DHT22;26604;53.596;10.042;2022-11-20T09:20:45;20.50;99.90
15638;DHT22;26604;53.596;10.042;2022-11-20T09:23:12;20.40;99.90
15638;DHT22;26604;53.596;10.042;2022-11-20T09:25:39;20.40;99.90
15638;DHT22;26604;53.596;10.042;2022-11-20T09:28:06;20.30;99.90
15638;DHT22;26604;53.596;10.042;2022-11-20T09:30:34;20.10;99.90
15638;DHT22;26604;53.596;10.042;2022-11-20T09:33:01;20.10;99.90
15638;DHT22;26604;53.596;10.042;2022-11-20T09:35:27;20.00;99.90
15638;DHT22;26604;53.596;10.042;2022-11-20T09:37:54;19.90;99.90
15638;DHT22;26604;53.596;10.042;2022-11-20T09:40:23;19.90;99.90
15638;DHT22;26604;53.596;10.042;2022-11-20T09:42:56;20.00;99.90
15638;DHT22;26604;53.596;10.042;2022-11-20T09:45:39;20.20;99.90
15638;DHT22;26604;53.596;10.042;2022-11-20T09:48:20;20.30;99.90
15638;DHT22;26604;53.596;10.042;2022-11-20T09:50:56;20.50;99.90
15638;DHT22;26604;53.596;10.042;2022-11-20T09:53:32;20.70;99.90
15638;DHT22;26604;53.596;10.042;2022-11-20T09:56:03;20.90;99.90
15638;DHT22;26604;53.596;10.042;2022-11-20T09:58:35;21.00;99.90
15638;DHT22;26604;53.596;10.042;2022-11-20T10:01:11;21.00;99.90
15638;DHT22;26604;53.596;10.042;2022-11-20T10:03:49;21.00;99.90
15638;DHT22;26604;53.596;10.042;2022-11-20T10:06:28;20.90;99.90
15638;DHT22;26604;53.596;10.042;2022-11-20T10:09:02;20.80;99.90
15638;DHT22;26604;53.596;10.042;2022-11-20T10:11:35;20.70;99.90
15638;DHT22;26604;53.596;10.042;2022-11-20T10:14:12;20.70;99.90
15638;DHT22;26604;53.596;10.042;2022-11-20T10:16:50;20.60;99.90
15638;DHT22;26604;53.596;10.042;2022-11-20T10:19:38;20.50;99.90
15638;DHT22;26604;53.596;10.042;2022-11-20T10:22:14;20.40;99.90
15638;DHT22;26604;53.596;10.042;2022-11-20T10:24:54;20.30;99.90
15638;DHT22;26604;53.596;10.042;2022-11-20T10:27:39;20.20;99.90
15638;DHT22;26604;53.596;10.042;2022-11-20T10:30:09;20.20;99.90
15638;DHT22;26604;53.596;10.042;2022-11-20T10:32:40;20.10;99.90
15638;DHT22;26604;53.596;10.042;2022-11-20T10:35:16;20.10;99.90
15638;DHT22;26604;53.596;10.042;2022-11-20T10:37:48;20.00;99.90
15638;DHT22;26604;53.596;10.042;2022-11-20T10:40:22;20.00;99.90
15638;DHT22;26604;53.596;10.042;2022-11-20T10:42:53;19.90;99.90
15638;DHT22;26604;53.596;10.042;2022-11-20T10:45:36;19.90;99.90
15638;DHT22;26604;53.596;10.042;2022-11-20T10:48:14;19.90;99.90
15638;DHT22;26604;53.596;10.042;2022-11-20T10:50:50;19.80;99.90
15638;DHT22;26604;53.596;10.042;2022-11-20T10:56:19;19.70;99.90
15638;DHT22;26604;53.596;10.042;2022-11-20T10:58:54;19.70;99.90
15638;DHT22;26604;53.596;10.042;2022-11-20T11:01:23;19.70;99.90
15638;DHT22;26604;53.596;10.042;2022-11-20T11:03:53;19.60;99.90
15638;DHT22;26604;53.596;10.042;2022-11-20T11:06:25;19.60;99.90
15638;DHT22;26604;53.596;10.042;2022-11-20T11:08:58;19.60;99.90
15638;DHT22;26604;53.596;10.042;2022-11-20T11:11:29;19.60;99.90
15638;DHT22;26604;53.596;10.042;2022-11-20T11:14:05;19.60;99.90
15638;DHT22;26604;53.596;10.042;2022-11-20T11:16:32;19.50;99.90
15638;DHT22;26604;53.596;10.042;2022-11-20T11:19:11;19.50;99.90
15638;DHT22;26604;53.596;10.042;2022-11-20T11:21:49;19.50;99.90
15638;DHT22;26604;53.596;10.042;2022-11-20T11:24:21;19.40;99.90
15638;DHT22;26604;53.596;10.042;2022-11-20T11:26:54;19.40;99.90
15638;DHT22;26604;53.596;10.042;2022-11-20T11:29:22;19.40;99.90
15638;DHT22;26604;53.596;10.042;2022-11-20T11:32:03;19.40;99.90
15638;DHT22;26604;53.596;10.042;2022-11-20T11:34:31;19.40;99.90
15638;DHT22;26604;53.596;10.042;2022-11-20T11:37:00;19.30;99.90
15638;DHT22;26604;53.596;10.042;2022-11-20T11:39:33;19.30;99.90
15638;DHT22;26604;53.596;10.042;2022-11-20T11:42:00;19.30;99.90
15638;DHT22;26604;53.596;10.042;2022-11-20T11:44:31;19.30;99.90
15638;DHT22;26604;53.596;10.042;2022-11-20T11:47:22;19.30;99.90
15638;DHT22;26604;53.596;10.042;2022-11-20T11:50:07;19.30;99.90
15638;DHT22;26604;53.596;10.042;2022-11-20T11:52:44;19.20;99.90
15638;DHT22;26604;53.596;10.042;2022-11-20T11:55:24;19.20;99.90
15638;DHT22;26604;53.596;10.042;2022-11-20T11:57:55;19.20;99.90
15638;DHT22;26604;53.596;10.042;2022-11-20T12:00:26;19.20;99.90
15638;DHT22;26604;53.596;10.042;2022-11-20T12:03:00;19.20;99.90
15638;DHT22;26604;53.596;10.042;2022-11-20T12:05:37;19.20;99.90
15638;DHT22;26604;53.596;10.042;2022-11-20T12:08:12;19.10;99.90
15638;DHT22;26604;53.596;10.042;2022-11-20T12:10:45;19.20;99.90
15638;DHT22;26604;53.596;10.042;2022-11-20T12:13:42;19.10;99.90
15638;DHT22;26604;53.596;10.042;2022-11-20T12:16:13;19.10;99.90
15638;DHT22;26604;53.596;10.042;2022-11-20T12:18:41;19.00;99.90
15638;DHT22;26604;53.596;10.042;2022-11-20T12:21:18;19.10;99.90
15638;DHT22;26604;53.596;10.042;2022-11-20T12:23:58;19.10;99.90
15638;DHT22;26604;53.596;10.042;2022-11-20T12:26:40;19.10;99.90
15638;DHT22;26604;53.596;10.042;2022-11-20T12:29:15;19.10;99.90
15638;DHT22;26604;53.596;10.042;2022-11-20T12:31:56;19.10;99.90
15638;DHT22;26604;53.596;10.042;2022-11-20T12:34:47;19.10;99.90
15638;DHT22;26604;53.596;10.042;2022-11-20T12:37:29;19.10;99.90
15638;DHT22;26604;53.596;10.042;2022-11-20T12:40:02;19.10;99.90
15638;DHT22;26604;53.596;10.042;2022-11-20T12:42:42;19.10;99.90
15638;DHT22;26604;53.596;10.042;2022-11-20T12:45:54;19.00;99.90
15638;DHT22;26604;53.596;10.042;2022-11-20T12:48:40;19.00;99.90
15638;DHT22;26604;53.596;10.042;2022-11-20T12:51:34;19.00;99.90
15638;DHT22;26604;53.596;10.042;2022-11-20T12:54:31;19.00;99.90
15638;DHT22;26604;53.596;10.042;2022-11-20T12:57:06;19.00;99.90
15638;DHT22;26604;53.596;10.042;2022-11-20T12:59:54;19.00;99.90
15638;DHT22;26604;53.596;10.042;2022-11-20T13:02:26;19.00;99.90
15638;DHT22;26604;53.596;10.042;2022-11-20T13:05:14;19.00;99.90
15638;DHT22;26604;53.596;10.042;2022-11-20T13:07:45;19.00;99.90
15638;DHT22;26604;53.596;10.042;2022-11-20T13:10:21;19.00;99.90
15638;DHT22;26604;53.596;10.042;2022-11-20T13:12:56;19.00;99.90
15638;DHT22;26604;53.596;10.042;2022-11-20T13:15:36;19.00;99.90
15638;DHT22;26604;53.596;10.042;2022-11-20T13:18:10;19.00;99.90
15638;DHT22;26604;53.596;10.042;2022-11-20T13:20:42;19.00;99.90
15638;DHT22;26604;53.596;10.042;2022-11-20T13:23:10;19.00;99.90
15638;DHT22;26604;53.596;10.042;2022-11-20T13:25:39;19.00;99.90
15638;DHT22;26604;53.596;10.042;2022-11-20T13:28:28;19.00;99.90
15638;DHT22;26604;53.596;10.042;2022-11-20T13:30:57;19.00;99.90
15638;DHT22;26604;53.596;10.042;2022-11-20T13:33:28;19.00;99.90
15638;DHT22;26604;53.596;10.042;2022-11-20T13:35:58;19.00;99.90
15638;DHT22;26604;53.596;10.042;2022-11-20T13:38:25;19.00;99.90
15638;DHT22;26604;53.596;10.042;2022-11-20T13:40:54;18.90;99.90
15638;DHT22;26604;53.596;10.042;2022-11-20T13:43:27;18.90;99.90
15638;DHT22;26604;53.596;10.042;2022-11-20T13:45:56;18.90;99.90
15638;DHT22;26604;53.596;10.042;2022-11-20T13:48:25;18.90;99.90
15638;DHT22;26604;53.596;10.042;2022-11-20T13:51:09;18.90;99.90
15638;DHT22;26604;53.596;10.042;2022-11-20T13:54:14;18.90;99.90
15638;DHT22;26604;53.596;10.042;2022-11-20T13:56:51;18.90;99.90
15638;DHT22;26604;53.596;10.042;2022-11-20T13:59:31;18.90;99.90
15638;DHT22;26604;53.596;10.042;2022-11-20T14:02:03;18.90;99.90
15638;DHT22;26604;53.596;10.042;2022-11-20T14:04:38;18.90;99.90
15638;DHT22;26604;53.596;10.042;2022-11-20T14:07:09;18.90;99.90
15638;DHT22;26604;53.596;10.042;2022-11-20T14:09:36;18.90;99.90
15638;DHT22;26604;53.596;10.042;2022-11-20T14:12:15;18.90;99.90
15638;DHT22;26604;53.596;10.042;2022-11-20T14:14:49;18.90;99.90
15638;DHT22;26604;53.596;10.042;2022-11-20T14:17:19;18.90;99.90
15638;DHT22;26604;53.596;10.042;2022-11-20T14:19:47;18.90;99.90
15638;DHT22;26604;53.596;10.042;2022-11-20T14:22:20;18.90;99.90
15638;DHT22;26604;53.596;10.042;2022-11-20T14:24:47;18.90;99.90
15638;DHT22;26604;53.596;10.042;2022-11-20T14:27:18;18.90;99.90
15638;DHT22;26604;53.596;10.042;2022-11-20T14:29:46;18.90;99.90
15638;DHT22;26604;53.596;10.042;2022-11-20T14:32:16;18.90;99.90
15638;DHT22;26604;53.596;10.042;2022-11-20T14:34:45;18.90;99.90
15638;DHT22;26604;53.596;10.042;2022-11-20T14:37:13;18.90;99.90
15638;DHT22;26604;53.596;10.042;2022-11-20T14:39:49;18.80;99.90
15638;DHT22;26604;53.596;10.042;2022-11-20T14:42:19;18.80;99.90
15638;DHT22;26604;53.596;10.042;2022-11-20T14:44:48;18.80;99.90
15638;DHT22;26604;53.596;10.042;2022-11-20T14:47:18;18.80;99.90
15638;DHT22;26604;53.596;10.042;2022-11-20T14:49:46;18.80;99.90
15638;DHT22;26604;53.596;10.042;2022-11-20T14:52:15;18.80;99.90
15638;DHT22;26604;53.596;10.042;2022-11-20T14:54:46;18.80;99.90
15638;DHT22;26604;53.596;10.042;2022-11-20T14:57:26;18.80;99.90
15638;DHT22;26604;53.596;10.042;2022-11-20T15:00:06;18.80;99.90
15638;DHT22;26604;53.596;10.042;2022-11-20T15:02:33;18.80;99.90
15638;DHT22;26604;53.596;10.042;2022-11-20T15:05:01;18.80;99.90
15638;DHT22;26604;53.596;10.042;2022-11-20T15:07:31;18.80;99.90
15638;DHT22;26604;53.596;10.042;2022-11-20T15:10:03;18.80;99.90
15638;DHT22;26604;53.596;10.042;2022-11-20T15:12:33;18.80;99.90
15638;DHT22;26604;53.596;10.042;2022-11-20T15:15:01;18.80;99.90
15638;DHT22;26604;53.596;10.042;2022-11-20T15:17:30;18.80;99.90
15638;DHT22;26604;53.596;10.042;2022-11-20T15:19:59;18.80;99.90
15638;DHT22;26604;53.596;10.042;2022-11-20T15:22:26;18.80;99.90
15638;DHT22;26604;53.596;10.042;2022-11-20T15:24:53;18.80;99.90
15638;DHT22;26604;53.596;10.042;2022-11-20T15:27:20;18.70;99.90
15638;DHT22;26604;53.596;10.042;2022-11-20T15:29:48;18.70;99.90
15638;DHT22;26604;53.596;10.042;2022-11-20T15:32:15;18.70;99.90
15638;DHT22;26604;53.596;10.042;2022-11-20T15:34:42;18.70;99.90
15638;DHT22;26604;53.596;10.042;2022-11-20T15:37:09;18.70;99.90
15638;DHT22;26604;53.596;10.042;2022-11-20T15:39:36;18.70;99.90